Terminal Aerodrome Forecast
Issued by NWS

Home | Current Version | Previous Version | Graphics & Text | Print | Product List | Glossary Off
Versions: 1 2 3 4 5 6 7 8 9 10 11 12 13 14 15 16 17 18 19 20 21 22 23 24 25 26 27 28 29 30 31 32 33 34 35 36 37 38 39 40 41 42 43 44 45 46 47 48 49

000
FTUS43 KDDC 202021 AAG
TAFGCK
TAF AMD
KGCK 202021Z 2020/2118 23008KT P6SM VCSH BKN025 OVC060
     FM210000 30010KT P6SM BKN100
     FM210600 25006KT P6SM SCT200
     FM210900 29004KT 3SM BR VCFG SCT200=

USA.gov is the U.S. government's official web portal to all federal, state and local government web resources and services.